Time;durP1;ratioP1;P1;durP2;ratioP2;P2;SDS_P1;SDS_P2;PMS_P1;PMS_P2;Temp;Humidity;BMP_temperature;BMP_pressure;BME280_temperature;BME280_humidity;BME280_pressure;Samples;Min_cycle;Max_cycle;Signal;HPM_P1;HPM_P2
2023/10/22 00:01:13;;;;;;;3.07;0.70;;;11.70;99.90;;;;;;4231041;27;20203;-75
2023/10/22 00:03:15;;;;;;;1.00;0.50;;;11.60;99.90;;;;;;4225276;27;20240;-74
2023/10/22 00:05:17;;;;;;;1.43;0.67;;;11.60;99.90;;;;;;4229042;27;20200;-75
2023/10/22 00:07:18;;;;;;;1.10;0.70;;;11.60;99.90;;;;;;4227577;27;20209;-72
2023/10/22 00:09:20;;;;;;;0.90;0.50;;;11.60;99.90;;;;;;4222636;28;20205;-73
2023/10/22 00:11:22;;;;;;;1.17;0.70;;;11.60;99.90;;;;;;4225842;27;20205;-74
2023/10/22 00:13:24;;;;;;;3.10;0.60;;;11.60;99.90;;;;;;4225268;28;20278;-72
2023/10/22 00:15:27;;;;;;;4.30;0.90;;;11.60;99.90;;;;;;4225520;27;20215;-72
2023/10/22 00:17:30;;;;;;;1.30;0.80;;;11.60;99.90;;;;;;4224067;28;20219;-72
2023/10/22 00:19:32;;;;;;;1.37;0.70;;;11.60;99.90;;;;;;4222097;28;20272;-72
2023/10/22 00:21:34;;;;;;;2.93;0.77;;;11.60;99.90;;;;;;4227728;27;20197;-73
2023/10/22 00:23:36;;;;;;;2.37;0.90;;;11.60;99.90;;;;;;4224034;28;20611;-72
2023/10/22 00:25:38;;;;;;;2.20;1.00;;;11.60;99.90;;;;;;4224954;27;20257;-72
2023/10/22 00:27:39;;;;;;;1.70;0.83;;;11.60;99.90;;;;;;4223810;27;20212;-72
2023/10/22 00:29:41;;;;;;;1.93;0.80;;;11.50;99.90;;;;;;4226357;27;20260;-75
2023/10/22 00:31:43;;;;;;;1.40;0.73;;;11.50;99.90;;;;;;4229741;27;20224;-76
2023/10/22 00:33:46;;;;;;;2.97;1.00;;;11.50;99.90;;;;;;4226296;27;20272;-75
2023/10/22 00:35:56;;;;;;;1.60;0.70;;;11.60;99.90;;;;;;4221656;28;20201;-76
2023/10/22 00:37:57;;;;;;;2.13;1.03;;;11.50;99.90;;;;;;4224266;28;20200;-75
2023/10/22 00:39:59;;;;;;;1.93;1.20;;;11.50;99.90;;;;;;4223654;28;20278;-76
2023/10/22 00:42:01;;;;;;;3.90;0.87;;;11.70;99.90;;;;;;4225644;27;20232;-75
2023/10/22 00:44:02;;;;;;;2.97;0.80;;;11.50;99.90;;;;;;4226090;28;20284;-75
2023/10/22 00:46:04;;;;;;;4.90;1.03;;;11.50;99.90;;;;;;4226403;27;20661;-75
2023/10/22 00:48:08;;;;;;;1.43;0.80;;;11.50;99.90;;;;;;4228423;27;20204;-75
2023/10/22 00:50:12;;;;;;;1.53;0.70;;;11.50;99.90;;;;;;4224673;27;20881;-75
2023/10/22 00:52:15;;;;;;;3.57;1.30;;;11.50;99.90;;;;;;4228147;27;20255;-75
2023/10/22 00:54:19;;;;;;;3.77;1.00;;;11.50;99.90;;;;;;4224868;28;20269;-76
2023/10/22 00:56:22;;;;;;;1.40;1.10;;;11.50;99.90;;;;;;4222582;27;20211;-76
2023/10/22 00:58:26;;;;;;;6.10;1.10;;;11.50;99.90;;;;;;4223302;27;20707;-75
2023/10/22 01:00:28;;;;;;;3.97;1.10;;;11.50;99.90;;;;;;4221575;28;20582;-75
2023/10/22 01:02:30;;;;;;;2.33;1.00;;;11.50;99.90;;;;;;4224868;27;20228;-76
2023/10/22 01:04:32;;;;;;;1.97;1.20;;;11.50;99.90;;;;;;4228038;28;20204;-76
2023/10/22 01:06:37;;;;;;;3.10;1.03;;;11.40;99.90;;;;;;4225228;27;20221;-77
2023/10/22 01:08:39;;;;;;;2.20;0.80;;;11.50;99.90;;;;;;4224943;28;20265;-75
2023/10/22 01:10:41;;;;;;;4.43;1.17;;;11.50;99.90;;;;;;4223340;28;20204;-75
2023/10/22 01:12:43;;;;;;;2.23;1.30;;;11.40;99.90;;;;;;4224781;27;20812;-75
2023/10/22 01:14:45;;;;;;;4.63;1.07;;;11.40;99.90;;;;;;4228144;28;20245;-75
2023/10/22 01:16:47;;;;;;;1.80;0.80;;;11.30;99.90;;;;;;4227415;28;20203;-75
2023/10/22 01:18:49;;;;;;;1.37;0.90;;;11.40;99.90;;;;;;4224535;28;20256;-75
2023/10/22 01:20:51;;;;;;;4.40;1.00;;;11.30;99.90;;;;;;4223980;28;20200;-75
2023/10/22 01:22:55;;;;;;;2.80;0.90;;;11.30;99.90;;;;;;4227265;27;20259;-75
2023/10/22 01:24:57;;;;;;;2.30;1.00;;;11.30;99.90;;;;;;4222975;28;20198;-75
2023/10/22 01:26:59;;;;;;;1.53;0.90;;;11.30;99.90;;;;;;4229543;28;20224;-77
2023/10/22 01:29:01;;;;;;;3.27;0.90;;;11.30;99.90;;;;;;4225109;27;20628;-75
2023/10/22 01:31:04;;;;;;;1.30;0.90;;;11.30;99.90;;;;;;4224167;28;20667;-75
2023/10/22 01:33:06;;;;;;;4.10;0.80;;;11.20;99.90;;;;;;4222027;28;20617;-77
2023/10/22 01:35:10;;;;;;;2.80;1.03;;;11.20;99.90;;;;;;4222218;28;20239;-75
2023/10/22 01:37:12;;;;;;;1.87;1.10;;;11.10;99.90;;;;;;4226764;27;20239;-75
2023/10/22 01:39:14;;;;;;;2.43;0.80;;;11.10;99.90;;;;;;4226507;28;20215;-75
2023/10/22 01:41:18;;;;;;;1.93;1.27;;;11.10;99.90;;;;;;4228631;27;20246;-75
2023/10/22 01:43:20;;;;;;;3.07;1.33;;;11.10;99.90;;;;;;4224040;28;20227;-75
2023/10/22 01:45:22;;;;;;;4.53;1.37;;;11.10;99.90;;;;;;4222649;28;20212;-72
2023/10/22 01:47:24;;;;;;;3.60;1.30;;;11.10;99.90;;;;;;4224522;28;20201;-75
2023/10/22 01:49:26;;;;;;;2.40;1.33;;;11.10;99.90;;;;;;4220638;28;20200;-75
2023/10/22 01:51:28;;;;;;;5.70;1.10;;;11.10;99.90;;;;;;4218292;28;20270;-74
2023/10/22 01:53:30;;;;;;;3.00;1.10;;;11.10;99.90;;;;;;4217340;28;20680;-76
2023/10/22 01:55:32;;;;;;;2.87;1.10;;;11.00;99.90;;;;;;4223742;28;20219;-76
2023/10/22 01:57:34;;;;;;;3.27;1.30;;;11.00;99.90;;;;;;4220571;28;20211;-76
2023/10/22 01:59:37;;;;;;;2.07;1.23;;;11.00;99.90;;;;;;4224997;28;20621;-76
2023/10/22 02:01:39;;;;;;;3.37;1.10;;;11.00;99.90;;;;;;4221003;28;20203;-76
2023/10/22 02:03:45;;;;;;;1.63;1.13;;;11.00;99.90;;;;;;4220853;28;20253;-75
2023/10/22 02:05:47;;;;;;;2.53;1.10;;;11.00;99.90;;;;;;4220469;28;20247;-76
2023/10/22 02:07:49;;;;;;;1.80;1.10;;;11.00;99.90;;;;;;4222426;28;20201;-76
2023/10/22 02:09:51;;;;;;;2.27;1.30;;;11.00;99.90;;;;;;4221305;28;20598;-76
2023/10/22 02:11:53;;;;;;;2.07;1.10;;;11.00;99.90;;;;;;4219389;28;20305;-76
2023/10/22 02:13:57;;;;;;;2.50;1.50;;;11.00;99.90;;;;;;4219873;28;20224;-76
2023/10/22 02:15:59;;;;;;;3.43;1.27;;;11.00;99.90;;;;;;4224334;28;20205;-76
2023/10/22 02:18:01;;;;;;;3.40;1.10;;;11.00;99.90;;;;;;4223302;28;20274;-76
2023/10/22 02:20:02;;;;;;;2.17;1.20;;;11.00;99.90;;;;;;4217377;28;20676;-76
2023/10/22 02:22:04;;;;;;;3.37;1.20;;;11.00;99.90;;;;;;4221789;28;20283;-76
2023/10/22 02:24:07;;;;;;;1.90;1.20;;;11.00;99.90;;;;;;4221997;28;20241;-75
2023/10/22 02:26:09;;;;;;;2.97;1.20;;;11.00;99.90;;;;;;4220014;28;20212;-76
2023/10/22 02:28:11;;;;;;;3.17;1.30;;;11.00;99.90;;;;;;4220133;28;20688;-76
2023/10/22 02:30:14;;;;;;;3.33;1.63;;;11.00;99.90;;;;;;4221015;28;20208;-76
2023/10/22 02:32:16;;;;;;;3.27;1.40;;;10.90;99.90;;;;;;4223007;28;20292;-76
2023/10/22 02:34:18;;;;;;;2.87;1.50;;;10.90;99.90;;;;;;4218372;28;20220;-76
2023/10/22 02:36:20;;;;;;;3.43;1.70;;;10.90;99.90;;;;;;4220749;28;20664;-75
2023/10/22 02:38:22;;;;;;;3.43;1.40;;;10.90;99.90;;;;;;4227179;28;20204;-76
2023/10/22 02:40:24;;;;;;;3.23;1.30;;;10.90;99.90;;;;;;4224886;28;20204;-76
2023/10/22 02:42:27;;;;;;;2.50;1.30;;;10.90;99.90;;;;;;4224180;28;20267;-76
2023/10/22 02:44:29;;;;;;;3.63;1.63;;;10.90;99.90;;;;;;4221060;28;20291;-77
2023/10/22 02:46:31;;;;;;;3.83;1.43;;;10.90;99.90;;;;;;4221489;28;20319;-77
2023/10/22 02:48:33;;;;;;;3.90;1.63;;;10.90;99.90;;;;;;4223987;28;20283;-75
2023/10/22 02:50:39;;;;;;;4.13;2.13;;;10.80;99.90;;;;;;4220952;28;20247;-76
2023/10/22 02:52:41;;;;;;;2.97;1.60;;;10.90;99.90;;;;;;4221665;28;20251;-75
2023/10/22 02:54:43;;;;;;;3.90;1.73;;;10.90;99.90;;;;;;4224603;27;20232;-75
2023/10/22 02:56:44;;;;;;;5.50;2.03;;;10.90;99.90;;;;;;4222739;27;20213;-76
2023/10/22 02:58:46;;;;;;;7.97;1.83;;;10.80;99.90;;;;;;4224823;27;20205;-76
2023/10/22 03:00:47;;;;;;;3.07;1.63;;;10.80;99.90;;;;;;4224000;28;20200;-75
2023/10/22 03:02:51;;;;;;;5.33;1.63;;;10.80;99.90;;;;;;4225443;27;20268;-76
2023/10/22 03:04:52;;;;;;;7.40;1.70;;;10.80;99.90;;;;;;4224991;27;20732;-76
2023/10/22 03:06:54;;;;;;;2.57;1.53;;;10.80;99.90;;;;;;4228218;27;20261;-76
2023/10/22 03:08:56;;;;;;;5.87;1.80;;;10.80;99.90;;;;;;4224559;27;20261;-77
2023/10/22 03:10:58;;;;;;;2.47;1.73;;;10.80;99.90;;;;;;4223283;27;20221;-76
2023/10/22 03:13:00;;;;;;;4.33;1.70;;;10.70;99.90;;;;;;4224857;27;20781;-76
2023/10/22 03:15:01;;;;;;;3.53;1.60;;;10.70;99.90;;;;;;4226399;27;20228;-77
2023/10/22 03:17:03;;;;;;;3.03;1.80;;;10.70;99.90;;;;;;4226865;27;20211;-76
2023/10/22 03:19:08;;;;;;;3.00;1.53;;;10.70;99.90;;;;;;4226238;27;20211;-76
2023/10/22 03:21:12;;;;;;;2.67;1.67;;;10.70;99.90;;;;;;4224951;27;20232;-76
2023/10/22 03:23:14;;;;;;;2.93;1.60;;;10.70;99.90;;;;;;4222883;27;20228;-77
2023/10/22 03:25:15;;;;;;;2.67;1.60;;;10.70;99.90;;;;;;4225638;28;20205;-77
2023/10/22 03:27:17;;;;;;;3.60;1.90;;;10.60;99.90;;;;;;4226777;27;20734;-76
2023/10/22 03:29:19;;;;;;;2.97;1.70;;;10.70;99.90;;;;;;4223495;28;20725;-76
2023/10/22 03:31:21;;;;;;;4.40;1.77;;;10.70;99.90;;;;;;4223107;27;20653;-77
2023/10/22 03:33:22;;;;;;;2.90;1.70;;;10.60;99.90;;;;;;4225361;27;20288;-76
2023/10/22 03:35:25;;;;;;;4.57;1.53;;;10.70;99.90;;;;;;4224907;27;20363;-76
2023/10/22 03:37:27;;;;;;;3.13;1.40;;;10.60;99.90;;;;;;4223836;27;20257;-76
2023/10/22 03:39:29;;;;;;;4.03;1.60;;;10.60;99.90;;;;;;4226026;27;20275;-76
2023/10/22 03:41:31;;;;;;;4.10;1.73;;;10.60;99.90;;;;;;4226544;27;20261;-77
2023/10/22 03:43:34;;;;;;;7.50;2.20;;;10.60;99.90;;;;;;4224982;27;20271;-76
2023/10/22 03:45:36;;;;;;;3.33;1.50;;;10.50;99.90;;;;;;4224387;28;20220;-76
2023/10/22 03:47:38;;;;;;;3.57;1.40;;;10.50;99.90;;;;;;4224531;27;20341;-75
2023/10/22 03:49:39;;;;;;;4.87;1.80;;;10.50;99.90;;;;;;4224122;27;20249;-76
2023/10/22 03:51:43;;;;;;;3.63;1.30;;;10.60;99.90;;;;;;4223932;27;20204;-76
2023/10/22 03:53:45;;;;;;;4.53;1.40;;;10.50;99.90;;;;;;4226087;27;20204;-76
2023/10/22 03:55:47;;;;;;;4.33;1.40;;;10.50;99.90;;;;;;4219920;28;20601;-76
2023/10/22 03:57:48;;;;;;;1.50;1.10;;;10.50;99.90;;;;;;4225586;28;20564;-76
2023/10/22 03:59:50;;;;;;;2.53;1.30;;;10.50;99.90;;;;;;4223617;27;20207;-76
2023/10/22 04:01:55;;;;;;;2.17;1.20;;;10.50;99.90;;;;;;4223034;28;20230;-77
2023/10/22 04:03:57;;;;;;;9.17;1.57;;;10.50;99.90;;;;;;4224720;27;20331;-76
2023/10/22 04:05:59;;;;;;;5.53;1.43;;;10.40;99.90;;;;;;4225211;27;20204;-75
2023/10/22 04:08:03;;;;;;;4.90;1.10;;;10.40;99.90;;;;;;4224366;27;20732;-76
2023/10/22 04:10:09;;;;;;;1.80;1.17;;;10.40;99.90;;;;;;4223487;28;20298;-76
2023/10/22 04:12:14;;;;;;;3.03;1.17;;;10.40;99.90;;;;;;4222587;28;20239;-77
2023/10/22 04:14:17;;;;;;;2.23;1.30;;;10.40;99.90;;;;;;4227539;27;20215;-77
2023/10/22 04:16:18;;;;;;;2.70;1.10;;;10.40;99.90;;;;;;4222688;27;20641;-76
2023/10/22 04:18:20;;;;;;;7.50;1.20;;;10.40;99.90;;;;;;4225495;27;20738;-76
2023/10/22 04:20:22;;;;;;;5.40;1.07;;;10.40;99.90;;;;;;4224266;27;20777;-76
2023/10/22 04:22:24;;;;;;;3.43;1.10;;;10.40;99.90;;;;;;4222900;27;21166;-76
2023/10/22 04:24:27;;;;;;;2.33;1.10;;;10.40;99.90;;;;;;4223682;27;21215;-76
2023/10/22 04:26:29;;;;;;;2.17;1.00;;;10.40;99.90;;;;;;4224055;27;20245;-76
2023/10/22 04:28:32;;;;;;;1.60;1.10;;;10.40;99.90;;;;;;4223628;27;20238;-76
2023/10/22 04:30:36;;;;;;;2.50;1.30;;;10.30;99.90;;;;;;4222244;27;20227;-75
2023/10/22 04:32:38;;;;;;;1.50;0.90;;;10.30;99.90;;;;;;4220937;27;20322;-76
2023/10/22 04:34:40;;;;;;;1.60;1.00;;;10.30;99.90;;;;;;4224369;27;20207;-76
2023/10/22 04:36:42;;;;;;;4.77;1.30;;;10.30;99.90;;;;;;4223190;28;20253;-77
2023/10/22 04:38:43;;;;;;;2.63;1.00;;;10.30;99.90;;;;;;4224814;27;20216;-77
2023/10/22 04:40:49;;;;;;;1.63;1.27;;;10.30;99.90;;;;;;4228063;27;20274;-76
2023/10/22 04:42:51;;;;;;;2.70;1.00;;;10.30;99.90;;;;;;4223681;27;20223;-75
2023/10/22 04:44:53;;;;;;;1.37;1.13;;;10.30;99.90;;;;;;4223310;28;20212;-76
2023/10/22 04:46:55;;;;;;;1.93;1.17;;;10.20;99.90;;;;;;4224915;28;20200;-77
2023/10/22 04:48:57;;;;;;;1.70;1.10;;;10.20;99.90;;;;;;4223000;28;20226;-77
2023/10/22 04:51:04;;;;;;;2.77;1.30;;;10.30;99.90;;;;;;4224666;28;20283;-76
2023/10/22 04:53:06;;;;;;;2.73;0.90;;;10.30;99.90;;;;;;4222467;28;20290;-76
2023/10/22 04:55:08;;;;;;;1.73;0.90;;;10.30;99.90;;;;;;4225456;27;20272;-76
2023/10/22 04:57:11;;;;;;;1.00;0.80;;;10.30;99.90;;;;;;4222673;28;20250;-76
2023/10/22 04:59:13;;;;;;;1.80;0.80;;;10.30;99.90;;;;;;4226476;27;20211;-76
2023/10/22 05:01:15;;;;;;;2.30;0.93;;;10.20;99.90;;;;;;4223765;27;20214;-76
2023/10/22 05:03:18;;;;;;;1.60;1.07;;;10.30;99.90;;;;;;4224268;27;20240;-77
2023/10/22 05:05:21;;;;;;;3.60;1.33;;;10.30;99.90;;;;;;4220035;27;20256;-77
2023/10/22 05:07:21;;;;;;;2.33;1.13;;;10.20;99.90;;;;;;4221745;27;20232;-76
2023/10/22 05:09:24;;;;;;;3.13;1.40;;;10.20;99.90;;;;;;4222388;27;20683;-77
2023/10/22 05:11:26;;;;;;;3.53;1.13;;;10.20;99.90;;;;;;4223363;28;20714;-76
2023/10/22 05:13:29;;;;;;;2.93;1.47;;;10.20;99.90;;;;;;4218092;28;20644;-77
2023/10/22 05:15:32;;;;;;;4.37;1.60;;;10.20;99.90;;;;;;4220492;27;20220;-76
2023/10/22 05:17:34;;;;;;;3.43;1.40;;;10.20;99.90;;;;;;4220743;27;20417;-76
2023/10/22 05:19:36;;;;;;;4.10;1.50;;;10.20;99.90;;;;;;4222484;27;20211;-76
2023/10/22 05:21:38;;;;;;;1.73;1.20;;;10.20;99.90;;;;;;4221451;27;20726;-76
2023/10/22 05:23:40;;;;;;;2.60;1.20;;;10.10;99.90;;;;;;4218736;27;20207;-77
2023/10/22 05:25:42;;;;;;;3.37;1.20;;;10.10;99.90;;;;;;4223255;27;20199;-76
2023/10/22 05:27:44;;;;;;;2.53;1.10;;;10.10;99.90;;;;;;4223341;27;20218;-77
2023/10/22 05:29:47;;;;;;;3.60;1.20;;;10.10;99.90;;;;;;4223367;27;20200;-77
2023/10/22 05:31:49;;;;;;;2.67;1.37;;;10.10;99.90;;;;;;4220098;28;20228;-76
2023/10/22 05:33:51;;;;;;;2.87;1.50;;;10.10;99.90;;;;;;4221989;27;20200;-76
2023/10/22 05:35:53;;;;;;;2.77;1.50;;;10.10;99.90;;;;;;4221262;28;20315;-77
2023/10/22 05:37:54;;;;;;;3.10;1.30;;;10.10;99.90;;;;;;4221080;28;20645;-75
2023/10/22 05:39:57;;;;;;;1.97;1.27;;;10.10;99.90;;;;;;4218778;28;20225;-76
2023/10/22 05:41:59;;;;;;;4.27;1.60;;;10.10;99.90;;;;;;4220838;28;20272;-76
2023/10/22 05:44:02;;;;;;;2.23;1.37;;;10.10;99.90;;;;;;4221647;27;20628;-77
2023/10/22 05:46:05;;;;;;;4.50;1.50;;;10.10;99.90;;;;;;4221200;28;20294;-76
2023/10/22 05:48:07;;;;;;;4.13;1.17;;;10.10;99.90;;;;;;4220805;28;20208;-76
2023/10/22 05:50:10;;;;;;;2.50;1.20;;;10.10;99.90;;;;;;4223893;28;20215;-76
2023/10/22 05:52:13;;;;;;;3.07;1.10;;;10.10;99.90;;;;;;4223315;28;20703;-76
2023/10/22 05:54:15;;;;;;;3.53;1.50;;;10.10;99.90;;;;;;4224724;28;20705;-77
2023/10/22 05:56:18;;;;;;;2.97;1.20;;;10.00;99.90;;;;;;4221230;28;20280;-77
2023/10/22 05:58:20;;;;;;;3.60;1.30;;;10.10;99.90;;;;;;4225092;27;20574;-76
2023/10/22 06:00:22;;;;;;;2.80;1.40;;;10.10;99.90;;;;;;4224520;27;20215;-76
2023/10/22 06:02:25;;;;;;;2.10;1.40;;;10.10;99.90;;;;;;4223418;28;20306;-77
2023/10/22 06:04:27;;;;;;;5.07;1.50;;;10.10;99.90;;;;;;4221217;28;20208;-77
2023/10/22 06:06:28;;;;;;;2.07;1.40;;;10.10;99.90;;;;;;4225914;28;20257;-77
2023/10/22 06:08:30;;;;;;;2.10;1.40;;;10.10;99.90;;;;;;4222288;28;20541;-76
2023/10/22 06:10:32;;;;;;;4.20;1.67;;;10.10;99.90;;;;;;4222898;28;20213;-76
2023/10/22 06:12:34;;;;;;;2.20;1.40;;;10.10;99.90;;;;;;4223509;28;20240;-76
2023/10/22 06:14:36;;;;;;;4.30;1.60;;;10.10;99.90;;;;;;4223978;27;20195;-77
2023/10/22 06:16:38;;;;;;;4.53;1.40;;;10.10;99.90;;;;;;4220634;28;20622;-77
2023/10/22 06:18:41;;;;;;;5.10;1.60;;;10.10;99.90;;;;;;4224465;28;20215;-77
2023/10/22 06:20:43;;;;;;;2.37;1.40;;;10.10;99.90;;;;;;4219513;28;20215;-77
2023/10/22 06:22:46;;;;;;;3.10;1.50;;;10.10;99.90;;;;;;4219765;28;20280;-77
2023/10/22 06:24:47;;;;;;;3.30;1.70;;;10.20;99.90;;;;;;4220491;28;20199;-77
2023/10/22 06:26:49;;;;;;;5.40;1.60;;;10.20;99.90;;;;;;4221151;28;20215;-77
2023/10/22 06:28:51;;;;;;;8.07;4.50;;;10.20;99.90;;;;;;4221816;28;20690;-77
2023/10/22 06:30:52;;;;;;;11.73;6.83;;;10.20;99.90;;;;;;4226303;27;20242;-77
2023/10/22 06:32:55;;;;;;;5.97;3.13;;;10.20;99.90;;;;;;4225950;27;20220;-77
2023/10/22 06:34:59;;;;;;;4.07;1.70;;;10.20;99.90;;;;;;4224574;27;20277;-77
2023/10/22 06:37:01;;;;;;;2.40;1.80;;;10.30;99.90;;;;;;4225402;27;20211;-78
2023/10/22 06:39:03;;;;;;;3.13;1.63;;;10.30;99.90;;;;;;4221649;27;20256;-78
2023/10/22 06:41:06;;;;;;;5.80;1.57;;;10.30;99.90;;;;;;4222683;28;20692;-76
2023/10/22 06:43:08;;;;;;;4.93;1.90;;;10.30;99.90;;;;;;4226139;28;20318;-77
2023/10/22 06:45:10;;;;;;;4.00;1.93;;;10.40;99.90;;;;;;4225449;27;20567;-76
2023/10/22 06:47:12;;;;;;;4.80;2.03;;;10.40;99.90;;;;;;4225937;28;20208;-77
2023/10/22 06:49:14;;;;;;;6.93;2.03;;;10.40;99.90;;;;;;4227697;28;20203;-77
2023/10/22 06:51:17;;;;;;;5.20;2.20;;;10.40;99.90;;;;;;4225857;28;20241;-77
2023/10/22 06:53:18;;;;;;;4.70;1.90;;;10.40;99.90;;;;;;4225876;28;20723;-76
2023/10/22 06:55:20;;;;;;;4.43;2.10;;;10.50;99.90;;;;;;4224005;27;20303;-76
2023/10/22 06:57:22;;;;;;;2.90;1.80;;;10.50;99.90;;;;;;4220565;28;20867;-76
2023/10/22 06:59:24;;;;;;;2.63;1.87;;;10.50;99.90;;;;;;4224840;28;20886;-77
2023/10/22 07:01:27;;;;;;;5.77;2.40;;;10.50;99.90;;;;;;4223730;28;20688;-77
2023/10/22 07:03:28;;;;;;;5.17;1.73;;;10.50;99.90;;;;;;4223659;28;20226;-77
2023/10/22 07:05:31;;;;;;;3.57;2.10;;;10.50;99.90;;;;;;4226144;28;20680;-77
2023/10/22 07:07:34;;;;;;;4.97;2.27;;;10.50;99.90;;;;;;4228492;28;20204;-76
2023/10/22 07:09:36;;;;;;;5.07;2.53;;;10.50;99.90;;;;;;4225382;27;20208;-76
2023/10/22 07:11:38;;;;;;;6.93;4.20;;;10.50;99.90;;;;;;4223604;28;20688;-76
2023/10/22 07:13:40;;;;;;;7.40;3.90;;;10.50;99.90;;;;;;4223298;27;20299;-76
2023/10/22 07:15:42;;;;;;;5.60;2.60;;;10.50;99.90;;;;;;4223720;28;20634;-76
2023/10/22 07:17:43;;;;;;;4.23;2.83;;;10.50;99.90;;;;;;4223046;28;20284;-76
2023/10/22 07:19:45;;;;;;;3.53;2.30;;;10.50;99.90;;;;;;4223825;28;20204;-76
2023/10/22 07:21:46;;;;;;;5.07;2.27;;;10.50;99.90;;;;;;4220240;28;20707;-75
2023/10/22 07:23:49;;;;;;;3.93;2.00;;;10.50;99.90;;;;;;4225180;27;20253;-76
2023/10/22 07:25:55;;;;;;;3.87;2.50;;;10.50;99.90;;;;;;4221628;28;20629;-76
2023/10/22 07:27:57;;;;;;;6.93;1.97;;;10.50;99.90;;;;;;4223888;28;20200;-77
2023/10/22 07:29:59;;;;;;;3.23;2.20;;;10.50;99.90;;;;;;4223127;28;20225;-77
2023/10/22 07:32:01;;;;;;;4.77;2.20;;;10.50;99.90;;;;;;4223111;28;20236;-76
2023/10/22 07:34:03;;;;;;;7.13;2.60;;;10.50;99.90;;;;;;4225674;27;20200;-75
2023/10/22 07:36:04;;;;;;;4.67;2.33;;;10.50;99.90;;;;;;4226988;28;20293;-77
2023/10/22 07:38:06;;;;;;;7.53;2.17;;;10.60;99.90;;;;;;4222512;28;20575;-77
2023/10/22 07:40:10;;;;;;;7.47;2.23;;;10.60;99.90;;;;;;4223927;27;20598;-75
2023/10/22 07:42:12;;;;;;;5.77;2.37;;;10.60;99.90;;;;;;4223021;28;20570;-76
2023/10/22 07:44:14;;;;;;;8.87;2.77;;;10.60;99.90;;;;;;4226233;28;20270;-77
2023/10/22 07:46:17;;;;;;;3.97;2.33;;;10.60;99.90;;;;;;4222820;28;20744;-74
2023/10/22 07:48:18;;;;;;;3.43;1.80;;;10.60;99.90;;;;;;4220490;28;20211;-74
2023/10/22 07:50:20;;;;;;;3.83;1.90;;;10.70;99.90;;;;;;4225242;27;20204;-74
2023/10/22 07:52:22;;;;;;;3.30;1.83;;;10.60;99.90;;;;;;4222214;28;20232;-75
2023/10/22 07:54:24;;;;;;;5.83;2.20;;;10.70;99.90;;;;;;4223430;28;20230;-75
2023/10/22 07:56:27;;;;;;;3.13;2.00;;;10.70;99.90;;;;;;4220980;28;20221;-75
2023/10/22 07:58:29;;;;;;;4.07;1.80;;;10.70;99.90;;;;;;4222206;27;20263;-74
2023/10/22 08:00:30;;;;;;;5.00;2.10;;;10.70;99.90;;;;;;4221393;28;20201;-75
2023/10/22 08:02:32;;;;;;;4.87;1.90;;;10.70;99.90;;;;;;4224036;28;20235;-74
2023/10/22 08:04:35;;;;;;;2.50;1.90;;;10.70;99.90;;;;;;4223783;28;20687;-74
2023/10/22 08:06:37;;;;;;;3.90;2.00;;;10.70;99.90;;;;;;4224178;28;20211;-74
2023/10/22 08:08:39;;;;;;;2.83;1.87;;;10.70;99.90;;;;;;4222015;28;20204;-74
2023/10/22 08:10:41;;;;;;;8.40;2.67;;;10.80;99.90;;;;;;4221878;27;20204;-74
2023/10/22 08:12:44;;;;;;;3.40;2.07;;;10.70;99.90;;;;;;4219827;28;20217;-73
2023/10/22 08:14:46;;;;;;;3.33;1.90;;;10.80;99.90;;;;;;4221580;27;20685;-74
2023/10/22 08:16:48;;;;;;;4.53;2.20;;;10.80;99.90;;;;;;4218546;28;20223;-74
2023/10/22 08:18:50;;;;;;;6.77;2.07;;;10.80;99.90;;;;;;4223348;28;20265;-74
2023/10/22 08:20:51;;;;;;;3.13;2.10;;;10.80;99.90;;;;;;4223176;28;20261;-74
2023/10/22 08:22:53;;;;;;;4.77;2.23;;;10.90;99.90;;;;;;4222595;28;20216;-74
2023/10/22 08:24:55;;;;;;;3.97;2.13;;;10.90;99.90;;;;;;4221463;28;20250;-74
2023/10/22 08:27:00;;;;;;;3.67;2.10;;;11.00;99.90;;;;;;4223900;28;20743;-74
2023/10/22 08:29:04;;;;;;;4.37;2.10;;;11.00;99.90;;;;;;4220978;28;20223;-74
2023/10/22 08:31:06;;;;;;;3.87;1.80;;;11.10;99.90;;;;;;4223176;28;20216;-73
2023/10/22 08:33:08;;;;;;;5.10;2.50;;;11.10;99.90;;;;;;4219255;28;20709;-74
2023/10/22 08:35:13;;;;;;;4.47;2.20;;;11.10;99.90;;;;;;4220940;27;20232;-76
2023/10/22 08:37:15;;;;;;;4.37;2.00;;;11.20;99.90;;;;;;4219776;28;20217;-75
2023/10/22 08:39:16;;;;;;;5.57;1.73;;;11.30;99.90;;;;;;4223784;27;20200;-77
2023/10/22 08:41:21;;;;;;;3.20;1.90;;;11.30;99.90;;;;;;4222293;27;20253;-77
2023/10/22 08:43:24;;;;;;;3.00;1.53;;;11.30;99.90;;;;;;4224963;28;20220;-77
2023/10/22 08:45:27;;;;;;;3.83;1.97;;;11.30;99.90;;;;;;4226697;27;20249;-77
2023/10/22 08:47:29;;;;;;;4.87;1.80;;;11.30;99.90;;;;;;4222290;28;20209;-77
2023/10/22 08:49:32;;;;;;;3.07;1.53;;;11.40;99.90;;;;;;4227976;28;20200;-77
2023/10/22 08:51:35;;;;;;;3.87;1.90;;;11.40;99.90;;;;;;4224117;28;20221;-76
2023/10/22 08:53:37;;;;;;;5.30;1.93;;;11.50;99.90;;;;;;4221291;28;20205;-75
2023/10/22 08:55:42;;;;;;;8.17;2.20;;;11.50;99.90;;;;;;4223249;28;20246;-73
2023/10/22 08:57:44;;;;;;;5.07;1.63;;;11.50;99.90;;;;;;4228123;28;20573;-75
2023/10/22 08:59:48;;;;;;;5.20;1.80;;;11.60;99.90;;;;;;4228870;27;20254;-75
2023/10/22 09:01:50;;;;;;;5.90;1.70;;;11.60;99.90;;;;;;4224047;28;20232;-74
2023/10/22 09:03:52;;;;;;;3.80;1.40;;;11.60;99.90;;;;;;4228813;28;20245;-74
2023/10/22 09:05:54;;;;;;;4.30;1.60;;;11.70;99.90;;;;;;4227290;28;20247;-74
2023/10/22 09:07:56;;;;;;;6.10;1.73;;;11.70;99.90;;;;;;4223685;28;20211;-74
2023/10/22 09:09:58;;;;;;;4.33;1.27;;;11.80;99.90;;;;;;4226281;27;20213;-75
2023/10/22 09:12:00;;;;;;;5.97;1.73;;;11.80;99.90;;;;;;4226767;28;20294;-74
2023/10/22 09:14:20;;;;;;;4.80;1.70;;;11.80;99.90;;;;;;4228139;28;20200;-75
2023/10/22 09:16:33;;;;;;;3.80;1.50;;;11.90;99.90;;;;;;4222801;28;20216;-77
2023/10/22 09:18:44;;;;;;;4.10;1.60;;;11.90;99.90;;;;;;4223106;28;20291;-76
2023/10/22 09:20:46;;;;;;;5.00;1.67;;;11.90;99.90;;;;;;4221664;27;20239;-75
2023/10/22 09:22:48;;;;;;;8.43;1.70;;;12.00;99.90;;;;;;4223392;28;20252;-74
2023/10/22 09:24:53;;;;;;;5.93;1.70;;;12.10;99.90;;;;;;4223206;28;20206;-74
2023/10/22 09:26:55;;;;;;;5.70;1.57;;;12.10;99.90;;;;;;4228354;28;20216;-73
2023/10/22 09:29:04;;;;;;;6.27;1.60;;;12.20;99.90;;;;;;4226010;28;20265;-74
2023/10/22 09:31:07;;;;;;;4.03;1.43;;;12.20;99.90;;;;;;4222463;28;20197;-74
2023/10/22 09:33:08;;;;;;;2.27;1.40;;;12.20;99.90;;;;;;4225254;28;20746;-74
2023/10/22 09:35:15;;;;;;;2.57;1.57;;;12.30;99.90;;;;;;4219485;28;20228;-75
2023/10/22 09:37:17;;;;;;;4.17;1.40;;;12.30;99.90;;;;;;4225572;28;20283;-75
2023/10/22 09:39:32;;;;;;;6.30;1.30;;;12.40;99.90;;;;;;4225684;28;20209;-76
2023/10/22 09:41:34;;;;;;;4.20;1.13;;;12.40;99.90;;;;;;4221613;28;20221;-75
2023/10/22 09:43:35;;;;;;;3.97;1.30;;;12.50;99.90;;;;;;4222885;28;20205;-76
2023/10/22 09:45:39;;;;;;;3.67;1.33;;;12.50;99.90;;;;;;4220278;28;20856;-75
2023/10/22 09:47:41;;;;;;;5.77;1.70;;;12.60;99.90;;;;;;4225782;28;20741;-76
2023/10/22 09:49:48;;;;;;;5.17;1.40;;;12.70;99.90;;;;;;4222950;28;20673;-76
2023/10/22 09:51:52;;;;;;;4.10;1.30;;;12.70;99.90;;;;;;4222088;28;20267;-75
2023/10/22 09:53:55;;;;;;;4.53;1.80;;;12.80;99.90;;;;;;4229407;28;20202;-75
2023/10/22 09:55:58;;;;;;;2.00;1.13;;;12.90;99.90;;;;;;4220839;28;20232;-73
2023/10/22 09:58:01;;;;;;;4.37;1.10;;;13.00;99.90;;;;;;4223094;27;20989;-73
2023/10/22 10:00:08;;;;;;;6.07;1.20;;;13.00;99.90;;;;;;4223814;28;20267;-72
2023/10/22 10:02:14;;;;;;;4.87;1.00;;;13.10;99.90;;;;;;4222476;28;20236;-72
2023/10/22 10:04:18;;;;;;;6.97;1.80;;;13.10;99.90;;;;;;4223181;28;20216;-76
2023/10/22 10:06:20;;;;;;;4.07;1.17;;;13.10;99.90;;;;;;4224874;28;20206;-78
2023/10/22 10:08:24;;;;;;;5.50;1.33;;;13.20;99.90;;;;;;4223801;28;20208;-76
2023/10/22 10:10:26;;;;;;;4.80;1.00;;;13.30;99.90;;;;;;4223884;28;20250;-75
2023/10/22 10:12:31;;;;;;;5.10;1.23;;;13.30;99.90;;;;;;4221689;28;20233;-77
2023/10/22 10:14:42;;;;;;;4.97;1.50;;;13.40;99.90;;;;;;4228287;28;20188;-75
2023/10/22 10:16:44;;;;;;;7.30;1.57;;;13.40;99.90;;;;;;4222435;28;20218;-74
2023/10/22 10:19:03;;;;;;;3.80;1.10;;;13.50;99.90;;;;;;4220803;28;20215;-76
2023/10/22 10:21:39;;;;;;;5.83;0.93;;;13.70;99.90;;;;;;4220790;28;20669;-76
2023/10/22 10:24:16;;;;;;;3.17;1.10;;;13.80;99.90;;;;;;4223045;28;20207;-73
2023/10/22 10:26:30;;;;;;;2.97;1.13;;;13.90;99.90;;;;;;4225315;28;20200;-75
2023/10/22 10:28:42;;;;;;;6.60;1.10;;;14.00;99.90;;;;;;4226106;28;20707;-75
2023/10/22 10:30:44;;;;;;;4.70;1.50;;;13.90;99.90;;;;;;4227912;28;20207;-76
2023/10/22 10:32:46;;;;;;;3.53;1.10;;;13.90;99.90;;;;;;4218467;28;20221;-75
2023/10/22 10:34:49;;;;;;;4.53;1.23;;;14.00;99.90;;;;;;4222837;28;20198;-74
2023/10/22 10:36:52;;;;;;;7.37;1.60;;;13.90;99.90;;;;;;4222962;28;20569;-75
2023/10/22 10:39:17;;;;;;;5.23;1.43;;;14.00;99.90;;;;;;4226474;28;20197;-76
2023/10/22 10:41:51;;;;;;;4.90;1.40;;;14.00;99.90;;;;;;4226504;28;20249;-75